North Little Rock, AR (72116)

7:27 PM CDT on September 02, 2015 (GMT -0500)
Indian Hills | | Change Station
CLOSE
Current Station
Personal Weather Station
Location: North Little Rock, AR
Elevation: 488 ft
Nearby Weather Stations

Elev 488 ft 34.82 °N, 92.25 °W | Updated 11 minutes ago

Partly Cloudy
Partly Cloudy
76.3 °F
Feels Like 77 °F
N
0.0
Wind Variable Wind from WNW
Gusts 1.0 mph

Today
High -- | Low -- °F
--% Chance of Precip.
Yesterday
High -- | Low -- °F
Precip. -- in
6:42 AM 7:34 PM
Waning Gibbous, 76% visible
Pressure 30.00 in
Visibility 10.0 miles
Clouds Few 3000 ft
Scattered Clouds 15000 ft
Scattered Clouds 25000 ft
Heat Index 77 °F
Dew Point 74 °F
Humidity 91%
Rainfall 0.92 in
Snow Depth Not available.
UV 0 out of 12
Pollen 9.80 out of 12
Air Quality Not available.
Flu Activity Not available.
METAR KLIT 022353Z 16007KT 10SM FEW030 SCT150 SCT250 29/20 A3000 RMK AO2 SLP157 FU FEW030 FU LYR E CB TOP DSNT E 60000 T02890200 10356 20261 58006
Pressure 30.00 in
Visibility 10.0 miles
Clouds Few 3000 ft
Scattered Clouds 15000 ft
Scattered Clouds 25000 ft
Heat Index 77 °F
Dew Point 74 °F
Humidity 91%
Rainfall 0.92 in
Snow Depth Not available.
UV 0 out of 12
Pollen 9.80 out of 12
Air Quality Not available.
Flu Activity Not available.
METAR KLIT 022353Z 16007KT 10SM FEW030 SCT150 SCT250 29/20 A3000 RMK AO2 SLP157 FU FEW030 FU LYR E CB TOP DSNT E 60000 T02890200 10356 20261 58006

10-Day Weather Forecast

×

Almanac

Astronomy

Sep. 02, 2015 Rise Set
Actual Time
Civil Twilight
Nautical Twilight
Astronomical Twilight
Moon
Length of Visible Light
Length of Day
Tomorrow will be .
, % of the Moon is Illuminated

Today's Extremes

State Highs State Lows

Community

WunderPhotos

Upload Photos

1,851,849 photos uploaded!

WunderBlogs® & News

Nearby

Air Quality

  Air Quality AQ Index Pollutant
Not available.

Snow Depth

Station Depth Elevation

Earthquake Activity

City Distance Mag. Time & Date
Minimum magnitude displayed is 2.5.

Coastal Water Temperatures

Place Temperature

Stations

Nearby Weather Stations

Station Location Temp. Windchill Dew Point Humidity Wind Precip. Elev Updated Type